AIRPORT_AIRPORT_METAR
METAR FOR LFRS
ADDS - METARS form results

(0223 UTC 01 April 2020)
Data provider http://aviationweather.gov/metar/data/
 
METAR text: LFRS 010200Z AUTO 05011KT CAVOK 05/M01 Q1019 NOSIG
Conditions at: LFRS (NANTES/CHATEAU B, FR) observed 0200 UTC 01 April 2020
Temperature: 5.0°C (41°F)
Dewpoint: -1.0°C (30°F) [RH = 65%]
Pressure (altimeter): 30.09 inches Hg (1019.0 mb)
Winds: from the NE (50 degrees) at 13 MPH (11 knots; 5.7 m/s)
Visibility: 6 or more miles (10+ km)
Ceiling: ceiling and visibility are OK
Clouds: unknown
Weather: no significant weather observed at this time

METAR text: LFRS 010130Z AUTO 05010KT 010V070 CAVOK 06/M01 Q1020
Conditions at: LFRS (NANTES/CHATEAU B, FR) observed 0130 UTC 01 April 2020
Temperature: 6.0°C (43°F)
Dewpoint: -1.0°C (30°F) [RH = 61%]
Pressure (altimeter): 30.12 inches Hg (1020.0 mb)
Winds: from the NE (50 degrees) at 12 MPH (10 knots; 5.1 m/s)
Visibility: 6 or more miles (10+ km)
Ceiling: ceiling and visibility are OK
Clouds: unknown
Weather: no significant weather observed at this time

Forecast for: LFRS (NANTES/CHATEAU B, FR)
Text: TAF LFRS 312300Z 0100/0206 05012KT CAVOK
Forecast period: 0000 UTC 01 April 2020 to 0600 UTC 02 April 2020
Forecast type: FROM: standard forecast or significant change
Winds: from the NE (50 degrees) at 14 MPH (12 knots; 6.2 m/s)
Visibility: 6 or more miles 10+ km)
Ceiling: unknown
Clouds: missing
Weather: NSW  (no significant weather)

 AIRPORT_AIRPORT_MAP

 AIRPORT_RUNWAY_INFO
AIRPORT_RUNWAY 03 AIRPORT_RUNWAY_LENGTH 9514 ft AIRPORT_RUNWAY_WIDTH 148 ft
AIRPORT_RUNWAY_ELEVATION 73 ft AIRPORT_RUNWAY_THRESHOLD 0 ft AIRPORT_RUNWAY_HEADING 28
AIRPORT_RUNWAY 21 AIRPORT_RUNWAY_LENGTH 9514 ft AIRPORT_RUNWAY_WIDTH 148 ft
AIRPORT_RUNWAY_ELEVATION 86 ft AIRPORT_RUNWAY_THRESHOLD 694 ft AIRPORT_RUNWAY_HEADING 208

 AIRPORT_AIRPORT_FREQUENCIES
AIRPORT_AIRPORT_NAVAIDS_TYPE APP AIRPORT_AIRPORT_NAVAIDS_NAME APP AIRPORT_AIRPORT_NAVAIDS_FREQ 130.275 MHZ
AIRPORT_AIRPORT_NAVAIDS_TYPE ATIS AIRPORT_AIRPORT_NAVAIDS_NAME ATIS AIRPORT_AIRPORT_NAVAIDS_FREQ 126.925 MHZ
AIRPORT_AIRPORT_NAVAIDS_TYPE GND AIRPORT_AIRPORT_NAVAIDS_NAME GND AIRPORT_AIRPORT_NAVAIDS_FREQ 121.875 MHZ
AIRPORT_AIRPORT_NAVAIDS_TYPE INFO AIRPORT_AIRPORT_NAVAIDS_NAME INFO AIRPORT_AIRPORT_NAVAIDS_FREQ 129.875 MHZ
AIRPORT_AIRPORT_NAVAIDS_TYPE TWR AIRPORT_AIRPORT_NAVAIDS_NAME TWR AIRPORT_AIRPORT_NAVAIDS_FREQ 118.65 MHZ

 AIRPORT_AIRPORT_NAVAIDS
AIRPORT_AIRPORT_NAVAIDS_TYPE NDB AIRPORT_AIRPORT_NAVAIDS_NAME Nantes AIRPORT_AIRPORT_NAVAIDS_FREQ 369 KHZ
AIRPORT_AIRPORT_NAVAIDS_TYPE VOR-DME AIRPORT_AIRPORT_NAVAIDS_NAME Nantes AIRPORT_AIRPORT_NAVAIDS_FREQ 115500 KHZ



Copyright © 2005-2019 - Virtuel Air Alsace - Tous droits réservés